Aviation Digital Data Service (ADDS)

Output produced by TAFs form (1416 UTC 12 December 2017)
found at http://www.aviationweather.gov/adds/tafs/
 
KSAV 121353Z 24009KT 10SM FEW250 09/06 A2989 RMK AO2 SLP121 T00940061
KSAV 121136Z 1212/1312 23010KT P6SM SKC 
     FM121600 27017G24KT P6SM FEW050 
     FM130000 29011KT P6SM SKC